Laura K. Moran — WDE3239 — position and weather

sailwx.info

Track history (hours):
 
Tides and Currents Weather Stations Pressure Air Temp Water Temp Dewpoint Dewpoint Depression Visibility Wind Speed Wind Dir Waves Ship Positions

Laura K. Moran

Owner: Moran Towing Corporation, New Canaan, CT. More information available from US FCC via Universal Licensing System and Coast Guard Vessel Documentation Center.

Last reported at 2018-Jan-19 00:00 UTC. Time now 2018-Jan-19 00:04 UTC.
Position N 32°05' W 081°04'.

Length 28 m; draft 4.2 m.

Type: Port tender. MMSI: 367336190.

Date/timePositionNaut miles runAvg speedWind from/ knotsBaromVisibWave heightAir tempDewpointWater temp
2018-Jan-19 00:00N 32°05' W 081°04'0 0.0
2018-Jan-18 23:30N 32°05' W 081°04'0 0.0
2018-Jan-18 23:00N 32°05' W 081°04'0 0.0
2018-Jan-18 22:30N 32°05' W 081°04'0 0.0
2018-Jan-18 21:14N 32°05' W 081°04'0 0.0
2018-Jan-18 21:00N 32°05' W 081°04'0 0.0
2018-Jan-18 20:30N 32°05' W 081°04'0 0.0
2018-Jan-18 20:00N 32°05' W 081°04'0 0.0
2018-Jan-18 19:30N 32°05' W 081°04'0 0.0
2018-Jan-18 19:00N 32°05' W 081°04'0 0.0
2018-Jan-18 18:30N 32°05' W 081°04'0 0.0
2018-Jan-18 18:00N 32°05' W 081°04'0 0.0
2018-Jan-18 17:30N 32°05' W 081°04'0 0.0
2018-Jan-18 17:00N 32°05' W 081°04'1 2.7
2018-Jan-18 16:31N 32°05' W 081°05'4 7.3
2018-Jan-18 16:00N 32°08' W 081°08'0 0.2
2018-Jan-18 15:30N 32°08' W 081°08'1 1.7
2018-Jan-18 15:00N 32°07' W 081°08'2 4.1
2018-Jan-18 14:30N 32°06' W 081°06'1 2.5
2018-Jan-18 14:00N 32°06' W 081°07'1 2.7
2018-Jan-18 13:31N 32°08' W 081°08'1 2.9
2018-Jan-18 13:00N 32°06' W 081°07'3 6.3
2018-Jan-18 12:30N 32°05' W 081°04'0 0.0
2018-Jan-18 12:00N 32°05' W 081°04'0 0.0
2018-Jan-18 11:30N 32°05' W 081°04'0 0.0
2018-Jan-18 11:01N 32°05' W 081°04'0 0.0
2018-Jan-18 10:31N 32°05' W 081°04'0 0.0
2018-Jan-18 10:00N 32°05' W 081°04'0 0.0
2018-Jan-18 09:31N 32°05' W 081°04'0 0.0
2018-Jan-18 09:01N 32°05' W 081°04'0 0.0
2018-Jan-18 08:31N 32°05' W 081°04'0 0.0
2018-Jan-18 08:00N 32°05' W 081°04'0 0.0
2018-Jan-18 07:31N 32°05' W 081°04'0 0.0
2018-Jan-18 07:01N 32°05' W 081°04'0 0.0
2018-Jan-18 06:31N 32°05' W 081°04'0 0.0
2018-Jan-18 06:00N 32°05' W 081°04'0 0.0
2018-Jan-18 05:31N 32°05' W 081°04'0 0.0
2018-Jan-18 05:01N 32°05' W 081°04'0 0.0
2018-Jan-18 04:31N 32°05' W 081°04'0 0.0
2018-Jan-18 03:05N 32°05' W 081°04'0 0.0
2018-Jan-18 03:01N 32°05' W 081°04'0 0.0
2018-Jan-18 02:30N 32°05' W 081°04'0 0.0
2018-Jan-18 02:01N 32°05' W 081°04'0 0.0
2018-Jan-18 01:31N 32°05' W 081°04'0 0.0
2018-Jan-18 01:01N 32°05' W 081°04'0 0.0
2018-Jan-17 23:59N 32°05' W 081°04'0 0.0
2018-Jan-17 23:54N 32°05' W 081°04'  
2018-Jan-12 15:00N 32°05' W 081°04'0 0.0
2018-Jan-12 14:30N 32°05' W 081°04'0 0.0
2018-Jan-12 14:00N 32°05' W 081°04'0 0.0
2018-Jan-12 13:30N 32°05' W 081°04'0 0.0
2018-Jan-12 13:00N 32°05' W 081°04'0 0.0
2018-Jan-12 12:30N 32°05' W 081°04'0 0.0
2018-Jan-12 11:59N 32°05' W 081°04'0 0.0
2018-Jan-12 11:29N 32°05' W 081°04'0 0.0
2018-Jan-12 11:00N 32°05' W 081°04'0 0.0
2018-Jan-12 10:30N 32°05' W 081°04'0 0.0
2018-Jan-12 10:00N 32°05' W 081°04'0 0.0
2018-Jan-12 09:30N 32°05' W 081°04'0 0.0
2018-Jan-12 09:00N 32°05' W 081°04'0 0.0
2018-Jan-12 08:29N 32°05' W 081°04'0 0.0
2018-Jan-12 08:00N 32°05' W 081°04'0 0.0
2018-Jan-12 07:30N 32°05' W 081°04'0 0.0
2018-Jan-12 07:00N 32°05' W 081°04'0 0.0
2018-Jan-12 06:30N 32°05' W 081°04'0 0.0
2018-Jan-12 06:00N 32°05' W 081°04'0 0.0
2018-Jan-12 05:28N 32°05' W 081°04'0 0.0
2018-Jan-12 05:00N 32°05' W 081°04'0 0.0
2018-Jan-12 04:30N 32°05' W 081°04'0 0.0
2018-Jan-12 04:00N 32°05' W 081°04'0 0.0
2018-Jan-12 03:30N 32°05' W 081°04'0 0.0
2018-Jan-12 02:59N 32°05' W 081°04'0 0.0
2018-Jan-12 02:30N 32°05' W 081°04'0 0.0
2018-Jan-12 02:00N 32°05' W 081°04'0 0.0
2018-Jan-12 01:30N 32°05' W 081°04'0 0.0
2018-Jan-12 01:00N 32°05' W 081°04'0 0.0
2018-Jan-12 00:29N 32°05' W 081°04'0 0.0
2018-Jan-12 00:00N 32°05' W 081°04'0 0.0
2018-Jan-11 23:30N 32°05' W 081°04'0 0.0
2018-Jan-11 23:00N 32°05' W 081°04'0 0.0
2018-Jan-11 22:28N 32°05' W 081°04'0 0.0
2018-Jan-11 22:00N 32°05' W 081°04'0 0.0
2018-Jan-11 21:29N 32°05' W 081°04'0 0.0
2018-Jan-11 21:00N 32°05' W 081°04'0 0.0
2018-Jan-11 20:30N 32°05' W 081°04'0 0.0
2018-Jan-11 20:00N 32°05' W 081°04'0 0.0
2018-Jan-11 19:29N 32°05' W 081°04'0 0.0
2018-Jan-11 19:00N 32°05' W 081°04'0 0.0
2018-Jan-11 18:30N 32°05' W 081°04'0 0.0
2018-Jan-11 18:00N 32°05' W 081°04'0 0.0
2018-Jan-11 16:25N 32°05' W 081°04'0 0.0
2018-Jan-11 16:00N 32°05' W 081°04'0 0.0
2018-Jan-11 15:30N 32°05' W 081°04'0 0.0
2018-Jan-11 15:00N 32°05' W 081°04'0 0.0
2018-Jan-11 14:29N 32°05' W 081°04'0 0.0
2018-Jan-11 14:00N 32°05' W 081°04'0 0.0
2018-Jan-11 13:30N 32°05' W 081°04'0 0.0
2018-Jan-11 13:00N 32°05' W 081°04'2 4.5
2018-Jan-11 12:30N 32°06' W 081°06'0 0.0
2018-Jan-11 12:00N 32°06' W 081°06'0 0.0
2018-Jan-11 11:30N 32°06' W 081°06'0 0.0
2018-Jan-11 11:00N 32°06' W 081°06'0 0.0
2018-Jan-11 10:30N 32°06' W 081°06'0 0.0
2018-Jan-11 10:00N 32°06' W 081°06'0 0.0
2018-Jan-11 09:30N 32°06' W 081°06'0 0.0
2018-Jan-11 09:00N 32°06' W 081°06'0 0.0
2018-Jan-11 08:30N 32°06' W 081°06'0 0.0
2018-Jan-11 08:00N 32°06' W 081°06'0 0.0
2018-Jan-11 07:30N 32°06' W 081°06'0 0.0
2018-Jan-11 07:00N 32°06' W 081°06'0 0.0
2018-Jan-11 06:30N 32°06' W 081°06'0 0.1
2018-Jan-11 06:00N 32°06' W 081°06'2 5.0
2018-Jan-11 05:30N 32°08' W 081°08'0 0.5
2018-Jan-11 05:00N 32°07' W 081°08'0 0.1
2018-Jan-11 04:30N 32°07' W 081°08'3 5.1
2018-Jan-11 04:00N 32°05' W 081°06'3 5.5
2018-Jan-11 03:30N 32°05' W 081°03'0 0.1
2018-Jan-11 03:00N 32°05' W 081°03'1 1.4
2018-Jan-11 02:29N 32°05' W 081°04'2 5.0
2018-Jan-11 02:00N 32°06' W 081°01'2 4.3
2018-Jan-11 01:29N 32°05' W 081°04'0 0.4
2018-Jan-11 00:59N 32°05' W 081°04'0 0.0
2018-Jan-11 00:30N 32°05' W 081°04'0 0.0
2018-Jan-11 00:01N 32°05' W 081°04'0 0.0
2018-Jan-10 23:30N 32°05' W 081°04'0 0.0
2018-Jan-10 22:59N 32°05' W 081°04'0 0.0
2018-Jan-10 22:31N 32°05' W 081°04'0 0.0
2018-Jan-10 22:01N 32°05' W 081°04'0 0.0
2018-Jan-10 21:30N 32°05' W 081°04'0 0.0
2018-Jan-10 21:00N 32°05' W 081°04'0 0.0
2018-Jan-10 20:30N 32°05' W 081°04'0 0.0
2018-Jan-10 20:01N 32°05' W 081°04'0 0.0
2018-Jan-10 19:29N 32°05' W 081°04'0 0.0
2018-Jan-10 18:58N 32°05' W 081°04'0 0.0
2018-Jan-10 18:30N 32°05' W 081°04'0 0.0
2018-Jan-10 18:01N 32°05' W 081°04'0 0.0
2018-Jan-10 17:30N 32°05' W 081°04'0 0.0
2018-Jan-10 17:01N 32°05' W 081°04'0 0.0
2018-Jan-10 16:31N 32°05' W 081°04'0 0.0
2018-Jan-10 16:00N 32°05' W 081°04'0 0.0
2018-Jan-10 15:30N 32°05' W 081°04'0 0.0
2018-Jan-10 15:01N 32°05' W 081°04'0 0.0
2018-Jan-10 14:31N 32°05' W 081°04'0 0.0
2018-Jan-10 14:00N 32°05' W 081°04'0 0.0
2018-Jan-10 13:30N 32°05' W 081°04'0 0.0
2018-Jan-10 13:00N 32°05' W 081°04'0 0.0
2018-Jan-10 12:30N 32°05' W 081°04'0 0.0
2018-Jan-10 12:01N 32°05' W 081°04'0 0.0
2018-Jan-10 11:31N 32°05' W 081°04'0 0.0
2018-Jan-10 11:00N 32°05' W 081°04'0 0.0
2018-Jan-10 10:31N 32°05' W 081°04'0 0.0
2018-Jan-10 10:01N 32°05' W 081°04'0 0.0
2018-Jan-10 09:30N 32°05' W 081°04'2 3.9
2018-Jan-10 09:00N 32°05' W 081°06'3 5.5
2018-Jan-10 08:30N 32°08' W 081°08'0 0.1
2018-Jan-10 08:00N 32°08' W 081°08'0 0.1
2018-Jan-10 07:30N 32°08' W 081°08'0 0.2
2018-Jan-10 07:00N 32°07' W 081°08'1 1.5
2018-Jan-10 06:31N 32°08' W 081°09'0 0.0
2018-Jan-10 06:00N 32°08' W 081°09'3 5.0
2018-Jan-10 05:30N 32°06' W 081°07'3 5.3
2018-Jan-10 05:00N 32°05' W 081°04'0 0.4
2018-Jan-10 04:30N 32°05' W 081°04'0 0.0
2018-Jan-10 04:00N 32°05' W 081°04'0 0.0
2018-Jan-10 03:29N 32°05' W 081°04'0 0.0
2018-Jan-10 03:00N 32°05' W 081°04'0 0.0
2018-Jan-10 02:30N 32°05' W 081°04'0 0.0
2018-Jan-10 02:00N 32°05' W 081°04'0 0.0
2018-Jan-10 01:30N 32°05' W 081°04'0 0.0
2018-Jan-10 01:00N 32°05' W 081°04'3 6.4
2018-Jan-10 00:30N 32°06' W 081°07'2 3.2
2018-Jan-10 00:00N 32°08' W 081°08'0 0.1
2018-Jan-09 23:31N 32°08' W 081°08'2 3.2
2018-Jan-09 23:00N 32°06' W 081°07'  
Track history (hours):
 
Tides and Currents Weather Stations Pressure Air Temp Water Temp Dewpoint Dewpoint Depression Visibility Wind Speed Wind Dir Waves Ship Positions

Laura K. Moran

Owner: Moran Towing Corporation, New Canaan, CT. More information available from US FCC via Universal Licensing System and Coast Guard Vessel Documentation Center.

Last reported at 2018-Jan-19 00:00 UTC. Time now 2018-Jan-19 00:04 UTC.
Position N 32°05' W 081°04'.

Length 28 m; draft 4.2 m.

Type: Port tender. MMSI: 367336190.

Date/timePositionNaut miles runAvg speedWind from/ knotsBaromVisibWave heightAir tempDewpointWater temp
2018-Jan-19 00:00N 32°05' W 081°04'0 0.0
2018-Jan-18 23:30N 32°05' W 081°04'0 0.0
2018-Jan-18 23:00N 32°05' W 081°04'0 0.0
2018-Jan-18 22:30N 32°05' W 081°04'0 0.0
2018-Jan-18 21:14N 32°05' W 081°04'0 0.0
2018-Jan-18 21:00N 32°05' W 081°04'0 0.0
2018-Jan-18 20:30N 32°05' W 081°04'0 0.0
2018-Jan-18 20:00N 32°05' W 081°04'0 0.0
2018-Jan-18 19:30N 32°05' W 081°04'0 0.0
2018-Jan-18 19:00N 32°05' W 081°04'0 0.0
2018-Jan-18 18:30N 32°05' W 081°04'0 0.0
2018-Jan-18 18:00N 32°05' W 081°04'0 0.0
2018-Jan-18 17:30N 32°05' W 081°04'0 0.0
2018-Jan-18 17:00N 32°05' W 081°04'1 2.7
2018-Jan-18 16:31N 32°05' W 081°05'4 7.3
2018-Jan-18 16:00N 32°08' W 081°08'0 0.2
2018-Jan-18 15:30N 32°08' W 081°08'1 1.7
2018-Jan-18 15:00N 32°07' W 081°08'2 4.1
2018-Jan-18 14:30N 32°06' W 081°06'1 2.5
2018-Jan-18 14:00N 32°06' W 081°07'1 2.7
2018-Jan-18 13:31N 32°08' W 081°08'1 2.9
2018-Jan-18 13:00N 32°06' W 081°07'3 6.3
2018-Jan-18 12:30N 32°05' W 081°04'0 0.0
2018-Jan-18 12:00N 32°05' W 081°04'0 0.0
2018-Jan-18 11:30N 32°05' W 081°04'0 0.0
2018-Jan-18 11:01N 32°05' W 081°04'0 0.0
2018-Jan-18 10:31N 32°05' W 081°04'0 0.0
2018-Jan-18 10:00N 32°05' W 081°04'0 0.0
2018-Jan-18 09:31N 32°05' W 081°04'0 0.0
2018-Jan-18 09:01N 32°05' W 081°04'0 0.0
2018-Jan-18 08:31N 32°05' W 081°04'0 0.0
2018-Jan-18 08:00N 32°05' W 081°04'0 0.0
2018-Jan-18 07:31N 32°05' W 081°04'0 0.0
2018-Jan-18 07:01N 32°05' W 081°04'0 0.0
2018-Jan-18 06:31N 32°05' W 081°04'0 0.0
2018-Jan-18 06:00N 32°05' W 081°04'0 0.0
2018-Jan-18 05:31N 32°05' W 081°04'0 0.0
2018-Jan-18 05:01N 32°05' W 081°04'0 0.0
2018-Jan-18 04:31N 32°05' W 081°04'0 0.0
2018-Jan-18 03:05N 32°05' W 081°04'0 0.0
2018-Jan-18 03:01N 32°05' W 081°04'0 0.0
2018-Jan-18 02:30N 32°05' W 081°04'0 0.0
2018-Jan-18 02:01N 32°05' W 081°04'0 0.0
2018-Jan-18 01:31N 32°05' W 081°04'0 0.0
2018-Jan-18 01:01N 32°05' W 081°04'0 0.0
2018-Jan-17 23:59N 32°05' W 081°04'0 0.0
2018-Jan-17 23:54N 32°05' W 081°04'  
2018-Jan-12 15:00N 32°05' W 081°04'0 0.0
2018-Jan-12 14:30N 32°05' W 081°04'0 0.0
2018-Jan-12 14:00N 32°05' W 081°04'0 0.0
2018-Jan-12 13:30N 32°05' W 081°04'0 0.0
2018-Jan-12 13:00N 32°05' W 081°04'0 0.0
2018-Jan-12 12:30N 32°05' W 081°04'0 0.0
2018-Jan-12 11:59N 32°05' W 081°04'0 0.0
2018-Jan-12 11:29N 32°05' W 081°04'0 0.0
2018-Jan-12 11:00N 32°05' W 081°04'0 0.0
2018-Jan-12 10:30N 32°05' W 081°04'0 0.0
2018-Jan-12 10:00N 32°05' W 081°04'0 0.0
2018-Jan-12 09:30N 32°05' W 081°04'0 0.0
2018-Jan-12 09:00N 32°05' W 081°04'0 0.0
2018-Jan-12 08:29N 32°05' W 081°04'0 0.0
2018-Jan-12 08:00N 32°05' W 081°04'0 0.0
2018-Jan-12 07:30N 32°05' W 081°04'0 0.0
2018-Jan-12 07:00N 32°05' W 081°04'0 0.0
2018-Jan-12 06:30N 32°05' W 081°04'0 0.0
2018-Jan-12 06:00N 32°05' W 081°04'0 0.0
2018-Jan-12 05:28N 32°05' W 081°04'0 0.0
2018-Jan-12 05:00N 32°05' W 081°04'0 0.0
2018-Jan-12 04:30N 32°05' W 081°04'0 0.0
2018-Jan-12 04:00N 32°05' W 081°04'0 0.0
2018-Jan-12 03:30N 32°05' W 081°04'0 0.0
2018-Jan-12 02:59N 32°05' W 081°04'0 0.0
2018-Jan-12 02:30N 32°05' W 081°04'0 0.0
2018-Jan-12 02:00N 32°05' W 081°04'0 0.0
2018-Jan-12 01:30N 32°05' W 081°04'0 0.0
2018-Jan-12 01:00N 32°05' W 081°04'0 0.0
2018-Jan-12 00:29N 32°05' W 081°04'0 0.0
2018-Jan-12 00:00N 32°05' W 081°04'0 0.0
2018-Jan-11 23:30N 32°05' W 081°04'0 0.0
2018-Jan-11 23:00N 32°05' W 081°04'0 0.0
2018-Jan-11 22:28N 32°05' W 081°04'0 0.0
2018-Jan-11 22:00N 32°05' W 081°04'0 0.0
2018-Jan-11 21:29N 32°05' W 081°04'0 0.0
2018-Jan-11 21:00N 32°05' W 081°04'0 0.0
2018-Jan-11 20:30N 32°05' W 081°04'0 0.0
2018-Jan-11 20:00N 32°05' W 081°04'0 0.0
2018-Jan-11 19:29N 32°05' W 081°04'0 0.0
2018-Jan-11 19:00N 32°05' W 081°04'0 0.0
2018-Jan-11 18:30N 32°05' W 081°04'0 0.0
2018-Jan-11 18:00N 32°05' W 081°04'0 0.0
2018-Jan-11 16:25N 32°05' W 081°04'0 0.0
2018-Jan-11 16:00N 32°05' W 081°04'0 0.0
2018-Jan-11 15:30N 32°05' W 081°04'0 0.0
2018-Jan-11 15:00N 32°05' W 081°04'0 0.0
2018-Jan-11 14:29N 32°05' W 081°04'0 0.0
2018-Jan-11 14:00N 32°05' W 081°04'0 0.0
2018-Jan-11 13:30N 32°05' W 081°04'0 0.0
2018-Jan-11 13:00N 32°05' W 081°04'2 4.5
2018-Jan-11 12:30N 32°06' W 081°06'0 0.0
2018-Jan-11 12:00N 32°06' W 081°06'0 0.0
2018-Jan-11 11:30N 32°06' W 081°06'0 0.0
2018-Jan-11 11:00N 32°06' W 081°06'0 0.0
2018-Jan-11 10:30N 32°06' W 081°06'0 0.0
2018-Jan-11 10:00N 32°06' W 081°06'0 0.0
2018-Jan-11 09:30N 32°06' W 081°06'0 0.0
2018-Jan-11 09:00N 32°06' W 081°06'0 0.0
2018-Jan-11 08:30N 32°06' W 081°06'0 0.0
2018-Jan-11 08:00N 32°06' W 081°06'0 0.0
2018-Jan-11 07:30N 32°06' W 081°06'0 0.0
2018-Jan-11 07:00N 32°06' W 081°06'0 0.0
2018-Jan-11 06:30N 32°06' W 081°06'0 0.1
2018-Jan-11 06:00N 32°06' W 081°06'2 5.0
2018-Jan-11 05:30N 32°08' W 081°08'0 0.5
2018-Jan-11 05:00N 32°07' W 081°08'0 0.1
2018-Jan-11 04:30N 32°07' W 081°08'3 5.1
2018-Jan-11 04:00N 32°05' W 081°06'3 5.5
2018-Jan-11 03:30N 32°05' W 081°03'0 0.1
2018-Jan-11 03:00N 32°05' W 081°03'1 1.4
2018-Jan-11 02:29N 32°05' W 081°04'2 5.0
2018-Jan-11 02:00N 32°06' W 081°01'2 4.3
2018-Jan-11 01:29N 32°05' W 081°04'0 0.4
2018-Jan-11 00:59N 32°05' W 081°04'0 0.0
2018-Jan-11 00:30N 32°05' W 081°04'0 0.0
2018-Jan-11 00:01N 32°05' W 081°04'0 0.0
2018-Jan-10 23:30N 32°05' W 081°04'0 0.0
2018-Jan-10 22:59N 32°05' W 081°04'0 0.0
2018-Jan-10 22:31N 32°05' W 081°04'0 0.0
2018-Jan-10 22:01N 32°05' W 081°04'0 0.0
2018-Jan-10 21:30N 32°05' W 081°04'0 0.0
2018-Jan-10 21:00N 32°05' W 081°04'0 0.0
2018-Jan-10 20:30N 32°05' W 081°04'0 0.0
2018-Jan-10 20:01N 32°05' W 081°04'0 0.0
2018-Jan-10 19:29N 32°05' W 081°04'0 0.0
2018-Jan-10 18:58N 32°05' W 081°04'0 0.0
2018-Jan-10 18:30N 32°05' W 081°04'0 0.0
2018-Jan-10 18:01N 32°05' W 081°04'0 0.0
2018-Jan-10 17:30N 32°05' W 081°04'0 0.0
2018-Jan-10 17:01N 32°05' W 081°04'0 0.0
2018-Jan-10 16:31N 32°05' W 081°04'0 0.0
2018-Jan-10 16:00N 32°05' W 081°04'0 0.0
2018-Jan-10 15:30N 32°05' W 081°04'0 0.0
2018-Jan-10 15:01N 32°05' W 081°04'0 0.0
2018-Jan-10 14:31N 32°05' W 081°04'0 0.0
2018-Jan-10 14:00N 32°05' W 081°04'0 0.0
2018-Jan-10 13:30N 32°05' W 081°04'0 0.0
2018-Jan-10 13:00N 32°05' W 081°04'0 0.0
2018-Jan-10 12:30N 32°05' W 081°04'0 0.0
2018-Jan-10 12:01N 32°05' W 081°04'0 0.0
2018-Jan-10 11:31N 32°05' W 081°04'0 0.0
2018-Jan-10 11:00N 32°05' W 081°04'0 0.0
2018-Jan-10 10:31N 32°05' W 081°04'0 0.0
2018-Jan-10 10:01N 32°05' W 081°04'0 0.0
2018-Jan-10 09:30N 32°05' W 081°04'2 3.9
2018-Jan-10 09:00N 32°05' W 081°06'3 5.5
2018-Jan-10 08:30N 32°08' W 081°08'0 0.1
2018-Jan-10 08:00N 32°08' W 081°08'0 0.1
2018-Jan-10 07:30N 32°08' W 081°08'0 0.2
2018-Jan-10 07:00N 32°07' W 081°08'1 1.5
2018-Jan-10 06:31N 32°08' W 081°09'0 0.0
2018-Jan-10 06:00N 32°08' W 081°09'3 5.0
2018-Jan-10 05:30N 32°06' W 081°07'3 5.3
2018-Jan-10 05:00N 32°05' W 081°04'0 0.4
2018-Jan-10 04:30N 32°05' W 081°04'0 0.0
2018-Jan-10 04:00N 32°05' W 081°04'0 0.0
2018-Jan-10 03:29N 32°05' W 081°04'0 0.0
2018-Jan-10 03:00N 32°05' W 081°04'0 0.0
2018-Jan-10 02:30N 32°05' W 081°04'0 0.0
2018-Jan-10 02:00N 32°05' W 081°04'0 0.0
2018-Jan-10 01:30N 32°05' W 081°04'0 0.0
2018-Jan-10 01:00N 32°05' W 081°04'3 6.4
2018-Jan-10 00:30N 32°06' W 081°07'2 3.2
2018-Jan-10 00:00N 32°08' W 081°08'0 0.1
2018-Jan-09 23:31N 32°08' W 081°08'2 3.2
2018-Jan-09 23:00N 32°06' W 081°07'  

Dump ship's entire track history